Tacoma Narrows Airport Tacoma US
ICAO: KTIW
IATA: TIW
Category: Medium
Scheduled Services: No

Elevation: 294 ft
TransAlt. 18000 ft.

Airport Communications:
SEATTLE APP/DEP:120.1
ATIS:124.05
CTAF:118.5
GND:121.8
TWR:118.5
UNICOM:122.95

KTIW Zoom In..

If you have problems with the map follow the link
https://www.worldairports.se/pages/airport.php?
ICAO=KTIW

Runways:

(A) RW 17 length 5002 ft width 150 ft
ILS 109.10 / hdg 167

(B) RW 35 length 5002 ft width 150 ft
---- / hdg 347

Location; KTIW
Day. 29 / Time. 10.53 Zulu
* Altimeter: 30.23
* Temperature: 08° c. 46.4°f.
* Wind from: KTI° Speed W kn.
Dewpoint: 06° c.
Visibility: 10 Statute Miles.
Clouds: Broken 3200 ft.
Clouds: Overcast 4100 ft.

KTIW 291053Z AUTO 22008KT 10SM BKN032 OVC041 08/06 A3023 RMK AO2 SLP238 T00830056


Wind From KTI°
Speed W kn.

 
 
jpsmedia worldairports.se 2020   terms of use